Time;durP1;ratioP1;P1;durP2;ratioP2;P2;SDS_P1;SDS_P2;PMS_P1;PMS_P2;Temp;Humidity;BMP_temperature;BMP_pressure;BME280_temperature;BME280_humidity;BME280_pressure;Samples;Min_cycle;Max_cycle;Signal;HPM_P1;HPM_P2
2024/01/06 00:00:25;;;;;;;14.47;11.23;;;7.90;99.90;;;;;;5022251;28;20196;-77
2024/01/06 00:02:53;;;;;;;14.70;11.53;;;7.90;99.90;;;;;;4996857;28;20191;-77
2024/01/06 00:05:20;;;;;;;15.17;12.13;;;7.90;99.90;;;;;;5008914;28;20196;-77
2024/01/06 00:07:49;;;;;;;15.80;12.33;;;7.80;99.90;;;;;;5013555;28;20195;-77
2024/01/06 00:10:16;;;;;;;16.93;12.60;;;7.90;99.90;;;;;;5014774;28;20203;-78
2024/01/06 00:12:44;;;;;;;16.13;12.33;;;7.90;99.90;;;;;;5002906;28;20216;-77
2024/01/06 00:15:11;;;;;;;15.97;12.03;;;7.90;99.90;;;;;;4977679;28;20200;-77
2024/01/06 00:17:38;;;;;;;17.20;11.90;;;7.80;99.90;;;;;;4996683;28;20223;-77
2024/01/06 00:20:07;;;;;;;17.83;12.20;;;7.80;99.90;;;;;;5013248;28;20202;-77
2024/01/06 00:22:35;;;;;;;17.10;12.77;;;7.80;99.90;;;;;;4997492;28;20203;-77
2024/01/06 00:25:04;;;;;;;17.93;12.83;;;7.90;99.90;;;;;;5014893;28;20192;-77
2024/01/06 00:27:31;;;;;;;17.40;12.97;;;7.90;99.90;;;;;;5012811;28;20226;-77
2024/01/06 00:29:58;;;;;;;16.90;12.73;;;7.90;99.90;;;;;;4996917;28;20200;-77
2024/01/06 00:32:26;;;;;;;17.17;12.47;;;7.90;99.90;;;;;;5014491;28;20188;-77
2024/01/06 00:34:53;;;;;;;15.50;12.13;;;7.90;99.90;;;;;;5014718;28;20210;-77
2024/01/06 00:37:20;;;;;;;18.90;12.10;;;7.90;99.90;;;;;;5011796;28;20226;-78
2024/01/06 00:39:48;;;;;;;18.30;13.07;;;7.90;99.90;;;;;;5008200;28;20221;-77
2024/01/06 00:42:16;;;;;;;15.93;12.53;;;7.90;99.90;;;;;;5002007;28;20196;-77
2024/01/06 00:44:45;;;;;;;18.60;12.67;;;7.90;99.90;;;;;;4995230;28;20189;-77
2024/01/06 00:47:12;;;;;;;17.47;13.53;;;7.90;99.90;;;;;;5010952;28;20222;-77
2024/01/06 00:49:40;;;;;;;18.83;13.13;;;7.90;99.90;;;;;;5014129;28;20211;-77
2024/01/06 00:52:07;;;;;;;19.53;13.10;;;7.90;99.90;;;;;;5012734;28;20230;-77
2024/01/06 00:54:34;;;;;;;19.83;13.80;;;7.90;99.90;;;;;;5012952;28;20685;-77
2024/01/06 00:57:01;;;;;;;18.33;12.67;;;7.90;99.90;;;;;;5030122;23;20231;-77
2024/01/06 00:59:30;;;;;;;19.13;12.63;;;7.90;99.90;;;;;;5013733;28;20199;-76
2024/01/06 01:01:57;;;;;;;17.37;12.60;;;7.90;99.90;;;;;;4996286;28;20200;-76
2024/01/06 01:04:25;;;;;;;19.20;12.63;;;8.00;99.90;;;;;;4996506;28;20681;-76
2024/01/06 01:06:52;;;;;;;17.60;12.70;;;8.00;99.90;;;;;;4995990;28;20215;-77
2024/01/06 01:09:19;;;;;;;16.60;13.03;;;8.10;99.90;;;;;;4997211;28;20560;-76
2024/01/06 01:11:47;;;;;;;16.83;12.23;;;8.00;99.90;;;;;;4993238;28;20204;-76
2024/01/06 01:14:14;;;;;;;16.60;12.03;;;8.10;99.90;;;;;;5012487;28;20207;-76
2024/01/06 01:16:43;;;;;;;17.37;13.13;;;8.20;99.90;;;;;;5015726;28;20227;-76
2024/01/06 01:19:10;;;;;;;16.40;12.37;;;8.10;99.90;;;;;;4997701;28;20559;-76
2024/01/06 01:21:38;;;;;;;18.03;13.57;;;8.00;99.90;;;;;;4992524;28;20196;-76
2024/01/06 01:24:06;;;;;;;18.73;13.97;;;8.10;99.90;;;;;;4992716;28;20196;-76
2024/01/06 01:26:33;;;;;;;21.07;13.20;;;8.00;99.90;;;;;;4976225;28;20220;-76
2024/01/06 01:29:00;;;;;;;17.93;13.53;;;8.00;99.90;;;;;;4986807;28;20200;-76
2024/01/06 01:31:28;;;;;;;18.10;13.20;;;8.20;99.90;;;;;;4992672;28;20219;-76
2024/01/06 01:33:56;;;;;;;19.23;14.50;;;8.20;99.90;;;;;;4992166;28;20227;-76
2024/01/06 01:36:24;;;;;;;19.20;14.27;;;8.00;99.90;;;;;;4992067;28;20228;-76
2024/01/06 01:38:51;;;;;;;24.87;15.90;;;8.00;99.90;;;;;;4984834;28;20578;-76
2024/01/06 01:41:18;;;;;;;19.57;14.47;;;8.00;99.90;;;;;;4995531;28;20203;-76
2024/01/06 01:43:47;;;;;;;23.33;15.57;;;8.00;99.90;;;;;;5013385;28;20183;-76
2024/01/06 01:46:14;;;;;;;23.47;15.63;;;8.00;99.90;;;;;;4995560;28;20565;-76
2024/01/06 01:48:42;;;;;;;23.03;15.33;;;8.00;99.90;;;;;;4994355;28;20600;-76
2024/01/06 01:51:11;;;;;;;25.50;16.13;;;8.00;99.90;;;;;;4991712;28;20200;-76
2024/01/06 01:53:39;;;;;;;23.43;15.47;;;8.00;99.90;;;;;;4975724;28;20217;-76
2024/01/06 01:56:06;;;;;;;23.83;15.87;;;7.90;99.90;;;;;;4991601;28;20689;-76
2024/01/06 01:58:34;;;;;;;24.93;15.97;;;7.90;99.90;;;;;;4997617;28;20207;-76
2024/01/06 02:01:01;;;;;;;24.20;15.90;;;7.90;99.90;;;;;;4994819;28;20204;-76
2024/01/06 02:03:30;;;;;;;24.13;16.13;;;8.00;99.90;;;;;;5012881;28;20198;-76
2024/01/06 02:05:58;;;;;;;25.47;16.40;;;8.00;99.90;;;;;;4995082;28;20218;-76
2024/01/06 02:08:27;;;;;;;24.77;16.70;;;7.90;99.90;;;;;;4995136;28;20230;-76
2024/01/06 02:10:56;;;;;;;24.27;15.63;;;8.00;99.90;;;;;;5012890;28;20192;-76
2024/01/06 02:13:24;;;;;;;25.50;16.03;;;8.00;99.90;;;;;;4994982;28;20198;-76
2024/01/06 02:15:52;;;;;;;27.53;17.13;;;8.00;99.90;;;;;;4983977;28;20208;-76
2024/01/06 02:18:20;;;;;;;27.70;17.30;;;8.00;99.90;;;;;;4988163;28;20223;-76
2024/01/06 02:20:49;;;;;;;27.07;17.63;;;8.00;99.90;;;;;;4995430;28;20198;-76
2024/01/06 02:23:17;;;;;;;28.80;17.03;;;8.00;99.90;;;;;;4995072;28;20203;-76
2024/01/06 02:25:45;;;;;;;26.87;16.60;;;8.20;99.90;;;;;;4993947;28;20195;-77
2024/01/06 02:28:30;;;;;;;27.53;17.00;;;8.20;99.90;;;;;;4991779;28;20236;-77
2024/01/06 02:30:58;;;;;;;28.57;17.80;;;8.30;99.90;;;;;;4983772;28;20218;-77
2024/01/06 02:33:25;;;;;;;29.13;18.90;;;8.20;99.90;;;;;;5012588;28;20207;-77
2024/01/06 02:35:53;;;;;;;24.87;16.33;;;8.20;99.90;;;;;;4994649;28;20195;-77
2024/01/06 02:38:21;;;;;;;27.07;16.87;;;8.30;99.90;;;;;;4994562;28;20230;-77
2024/01/06 02:40:49;;;;;;;27.00;17.97;;;8.20;99.90;;;;;;4979367;28;20200;-77
2024/01/06 02:43:16;;;;;;;25.37;16.43;;;8.30;99.90;;;;;;4994340;28;20203;-76
2024/01/06 02:45:43;;;;;;;25.17;15.93;;;8.10;99.90;;;;;;5012016;28;20188;-76
2024/01/06 02:48:11;;;;;;;24.90;17.57;;;8.10;99.90;;;;;;4994612;28;20222;-76
2024/01/06 02:50:38;;;;;;;25.67;17.23;;;8.10;99.90;;;;;;4990184;28;20196;-76
2024/01/06 02:53:05;;;;;;;22.97;15.07;;;8.30;99.90;;;;;;4977583;28;20207;-76
2024/01/06 02:55:34;;;;;;;21.93;14.23;;;8.00;99.90;;;;;;4992771;28;20207;-76
2024/01/06 02:58:01;;;;;;;16.57;10.97;;;7.80;99.90;;;;;;4994815;28;20223;-76
2024/01/06 03:00:29;;;;;;;17.90;12.23;;;7.80;99.90;;;;;;4993572;28;20200;-76
2024/01/06 03:02:56;;;;;;;16.33;10.83;;;7.70;99.90;;;;;;5006995;28;20191;-76
2024/01/06 03:05:23;;;;;;;17.53;11.27;;;7.70;99.90;;;;;;4995171;28;20196;-76
2024/01/06 03:07:51;;;;;;;18.20;11.53;;;7.70;99.90;;;;;;4981557;28;20224;-76
2024/01/06 03:10:18;;;;;;;16.47;10.63;;;7.60;99.90;;;;;;4982440;28;20215;-76
2024/01/06 03:12:47;;;;;;;15.30;10.10;;;7.70;99.90;;;;;;4998543;28;20200;-76
2024/01/06 03:15:14;;;;;;;15.13;10.20;;;7.60;99.90;;;;;;5005897;28;20219;-76
2024/01/06 03:17:42;;;;;;;19.17;10.97;;;7.50;99.90;;;;;;4998576;28;20224;-76
2024/01/06 03:20:10;;;;;;;16.10;9.40;;;7.50;99.90;;;;;;4995032;28;20192;-76
2024/01/06 03:22:38;;;;;;;14.30;9.70;;;7.50;99.90;;;;;;4996281;28;20189;-76
2024/01/06 03:25:06;;;;;;;16.07;9.90;;;7.50;99.90;;;;;;4979207;28;20563;-77
2024/01/06 03:27:33;;;;;;;15.57;9.70;;;7.50;99.90;;;;;;4995338;28;20220;-77
2024/01/06 03:30:03;;;;;;;15.57;10.57;;;7.50;99.90;;;;;;5015658;28;20183;-77
2024/01/06 03:32:30;;;;;;;14.40;9.90;;;7.50;99.90;;;;;;4994348;28;20200;-77
2024/01/06 03:34:57;;;;;;;14.00;10.17;;;7.50;99.90;;;;;;4996874;28;20252;-77
2024/01/06 03:37:25;;;;;;;16.87;11.13;;;7.50;99.90;;;;;;4994685;28;20220;-77
2024/01/06 03:39:52;;;;;;;15.37;9.93;;;7.50;99.90;;;;;;5006236;28;20703;-77
2024/01/06 03:42:20;;;;;;;14.43;10.00;;;7.40;99.90;;;;;;4998269;28;20222;-77
2024/01/06 03:44:47;;;;;;;15.23;10.23;;;7.50;99.90;;;;;;4994696;28;20192;-77
2024/01/06 03:47:16;;;;;;;14.13;9.40;;;7.50;99.90;;;;;;4996063;28;20222;-77
2024/01/06 03:49:43;;;;;;;14.00;9.57;;;7.50;99.90;;;;;;5015268;28;20203;-77
2024/01/06 03:52:10;;;;;;;16.20;10.73;;;7.60;99.90;;;;;;5011595;28;20239;-77
2024/01/06 03:54:38;;;;;;;14.60;9.43;;;7.50;99.90;;;;;;4994456;28;20220;-77
2024/01/06 03:57:05;;;;;;;14.90;9.97;;;7.60;99.90;;;;;;4979714;28;20234;-76
2024/01/06 03:59:33;;;;;;;12.27;8.77;;;7.50;99.90;;;;;;5002918;28;20199;-76
2024/01/06 04:02:00;;;;;;;17.57;10.80;;;7.40;99.90;;;;;;4987711;28;20662;-76
2024/01/06 04:04:29;;;;;;;13.50;9.40;;;7.30;99.90;;;;;;4978203;28;20200;-76
2024/01/06 04:06:56;;;;;;;15.23;10.03;;;7.20;99.90;;;;;;4995222;28;20572;-76
2024/01/06 04:09:24;;;;;;;14.87;9.57;;;7.10;99.90;;;;;;4989553;28;20196;-76
2024/01/06 04:12:04;;;;;;;12.93;8.53;;;7.00;99.90;;;;;;5001354;28;20196;-76
2024/01/06 04:14:31;;;;;;;12.93;8.30;;;6.90;99.90;;;;;;4997494;28;20203;-76
2024/01/06 04:16:58;;;;;;;13.77;8.30;;;6.90;99.90;;;;;;4993003;28;20223;-76
2024/01/06 04:19:26;;;;;;;12.43;7.53;;;6.90;99.90;;;;;;4996931;28;20661;-76
2024/01/06 04:21:55;;;;;;;14.30;8.63;;;6.90;99.90;;;;;;4993105;28;20203;-76
2024/01/06 04:24:22;;;;;;;13.07;8.20;;;6.80;99.90;;;;;;4996961;28;20204;-76
2024/01/06 04:26:51;;;;;;;12.53;8.30;;;6.90;99.90;;;;;;4996754;28;20220;-76
2024/01/06 04:29:18;;;;;;;14.03;9.27;;;6.90;99.90;;;;;;4996700;28;20207;-76
2024/01/06 04:31:46;;;;;;;14.97;8.97;;;6.80;99.90;;;;;;4994485;28;20207;-76
2024/01/06 04:34:14;;;;;;;13.10;8.83;;;6.80;99.90;;;;;;4997706;28;20681;-76
2024/01/06 04:36:41;;;;;;;12.83;8.70;;;6.80;99.90;;;;;;4996418;28;20222;-77
2024/01/06 04:39:12;;;;;;;13.90;9.20;;;6.70;99.90;;;;;;4996884;28;20283;-77
2024/01/06 04:41:40;;;;;;;13.43;9.03;;;6.90;99.90;;;;;;4992471;28;20207;-76
2024/01/06 04:44:07;;;;;;;15.83;9.63;;;7.00;99.90;;;;;;4990688;28;20206;-76
2024/01/06 04:46:35;;;;;;;14.33;8.90;;;6.80;99.90;;;;;;4996321;28;20229;-76
2024/01/06 04:49:02;;;;;;;14.00;8.40;;;7.00;99.90;;;;;;4996291;28;20565;-76
2024/01/06 04:51:30;;;;;;;13.63;9.13;;;7.00;99.90;;;;;;4995028;28;20243;-76
2024/01/06 04:53:57;;;;;;;14.93;9.10;;;7.10;99.90;;;;;;4982830;28;20200;-77
2024/01/06 04:56:26;;;;;;;14.40;9.43;;;7.00;99.90;;;;;;4996359;28;20216;-77
2024/01/06 04:58:53;;;;;;;15.40;9.53;;;7.00;99.90;;;;;;5014322;28;20168;-77
2024/01/06 05:01:21;;;;;;;15.27;9.80;;;6.80;99.90;;;;;;4996780;28;20207;-77
2024/01/06 05:03:48;;;;;;;15.87;10.00;;;6.80;99.90;;;;;;4996614;28;20203;-77
2024/01/06 05:06:16;;;;;;;13.97;9.20;;;6.70;99.90;;;;;;4994195;28;20195;-77
2024/01/06 05:08:44;;;;;;;13.13;8.30;;;6.70;99.90;;;;;;4999004;28;20570;-77
2024/01/06 05:11:12;;;;;;;14.27;8.63;;;6.70;99.90;;;;;;5002910;28;20249;-77
2024/01/06 05:13:41;;;;;;;12.80;9.07;;;6.70;99.90;;;;;;4986931;28;20644;-76
2024/01/06 05:16:09;;;;;;;15.67;9.53;;;6.70;99.90;;;;;;5011485;28;20211;-76
2024/01/06 05:18:36;;;;;;;15.57;9.70;;;6.70;99.90;;;;;;5013481;28;20203;-76
2024/01/06 05:21:04;;;;;;;16.90;10.00;;;6.80;99.90;;;;;;5012856;28;20207;-76
2024/01/06 05:24:05;;;;;;;15.67;10.00;;;6.70;99.90;;;;;;5000126;28;20676;-76
2024/01/06 05:26:32;;;;;;;13.80;9.37;;;6.60;99.90;;;;;;4995823;28;20577;-77
2024/01/06 05:29:01;;;;;;;16.90;10.43;;;6.70;99.90;;;;;;4996376;28;20204;-76
2024/01/06 05:31:28;;;;;;;16.03;10.73;;;6.70;99.90;;;;;;4996409;28;20207;-76
2024/01/06 05:33:56;;;;;;;16.93;10.47;;;6.60;99.90;;;;;;4994626;28;20196;-76
2024/01/06 05:36:23;;;;;;;15.83;9.97;;;6.60;99.90;;;;;;5016201;28;20226;-76
2024/01/06 05:38:51;;;;;;;14.57;9.67;;;6.70;99.90;;;;;;4995453;28;20219;-76
2024/01/06 05:41:18;;;;;;;14.57;9.57;;;6.70;99.90;;;;;;4995367;28;20207;-76
2024/01/06 05:43:46;;;;;;;15.27;9.23;;;6.60;99.90;;;;;;4989893;28;20657;-76
2024/01/06 05:46:21;;;;;;;15.13;9.53;;;6.60;99.90;;;;;;4995651;28;20195;-76
2024/01/06 05:48:49;;;;;;;13.50;8.97;;;6.70;99.90;;;;;;4995457;28;20203;-77
2024/01/06 05:51:16;;;;;;;15.43;9.37;;;6.70;99.90;;;;;;4995771;28;20204;-77
2024/01/06 05:53:54;;;;;;;14.10;9.53;;;6.80;99.90;;;;;;4993892;28;20207;-77
2024/01/06 05:56:26;;;;;;;17.17;10.13;;;6.90;99.90;;;;;;4990407;28;20219;-77
2024/01/06 05:58:53;;;;;;;14.80;9.77;;;6.90;99.90;;;;;;4987298;28;20200;-77
2024/01/06 06:01:22;;;;;;;18.63;10.30;;;6.80;99.90;;;;;;5012081;28;20195;-76
2024/01/06 06:03:50;;;;;;;13.23;9.13;;;6.80;99.90;;;;;;5021048;28;20196;-76
2024/01/06 06:06:17;;;;;;;12.60;8.17;;;7.00;99.90;;;;;;5012854;28;20184;-76
2024/01/06 06:08:45;;;;;;;11.10;8.30;;;6.90;99.90;;;;;;5012672;28;20188;-76
2024/01/06 06:11:12;;;;;;;12.27;8.40;;;6.80;99.90;;;;;;5017940;28;20204;-76
2024/01/06 06:13:40;;;;;;;12.77;9.23;;;6.70;99.90;;;;;;4995158;28;20234;-76
2024/01/06 06:16:10;;;;;;;12.27;8.90;;;6.70;99.90;;;;;;4994560;28;20215;-76
2024/01/06 06:18:38;;;;;;;14.23;10.00;;;6.50;99.90;;;;;;4995365;28;20203;-76
2024/01/06 06:21:07;;;;;;;15.83;9.97;;;6.50;99.90;;;;;;5011549;28;20684;-76
2024/01/06 06:23:35;;;;;;;15.03;9.30;;;6.40;99.90;;;;;;4978266;28;20223;-76
2024/01/06 06:26:14;;;;;;;16.10;10.97;;;6.40;99.90;;;;;;4990850;28;20211;-77
2024/01/06 06:28:41;;;;;;;15.20;9.10;;;6.30;99.90;;;;;;4975549;28;20204;-76
2024/01/06 06:31:09;;;;;;;12.23;8.37;;;6.30;99.90;;;;;;5000686;28;20214;-77
2024/01/06 06:33:39;;;;;;;13.73;8.97;;;6.30;99.90;;;;;;4994654;28;20202;-77
2024/01/06 06:36:06;;;;;;;14.57;10.10;;;6.20;99.90;;;;;;4994831;28;20227;-76
2024/01/06 06:38:34;;;;;;;15.00;9.83;;;6.30;99.90;;;;;;4995372;28;20200;-77
2024/01/06 06:41:01;;;;;;;15.70;10.40;;;6.40;99.90;;;;;;4995128;28;20211;-77
2024/01/06 06:43:28;;;;;;;18.23;10.53;;;6.40;99.90;;;;;;4994805;28;20202;-76
2024/01/06 06:45:56;;;;;;;17.10;11.67;;;6.40;99.90;;;;;;4994875;28;20203;-77
2024/01/06 06:48:23;;;;;;;17.23;10.37;;;6.40;99.90;;;;;;4995087;28;20227;-77
2024/01/06 06:50:52;;;;;;;15.90;11.07;;;6.40;99.90;;;;;;4995089;28;20200;-77
2024/01/06 06:53:19;;;;;;;16.30;10.73;;;6.30;99.90;;;;;;5019911;28;20204;-76
2024/01/06 06:55:47;;;;;;;18.37;11.13;;;6.30;99.90;;;;;;5018575;28;20195;-77
2024/01/06 06:58:14;;;;;;;17.23;10.67;;;6.30;99.90;;;;;;5012432;28;20219;-77
2024/01/06 07:00:49;;;;;;;18.83;11.80;;;6.20;99.90;;;;;;4994751;28;20203;-77
2024/01/06 07:03:29;;;;;;;20.50;12.07;;;6.20;99.90;;;;;;4994032;28;20202;-76
2024/01/06 07:06:12;;;;;;;18.63;11.77;;;6.10;99.90;;;;;;4987994;28;20569;-77
2024/01/06 07:12:28;;;;;;;15.57;9.67;;;6.30;99.90;;;;;;4977135;28;20202;-76
2024/01/06 07:14:55;;;;;;;19.00;10.93;;;6.10;99.90;;;;;;4994393;28;20210;-76
2024/01/06 07:17:23;;;;;;;16.00;10.10;;;6.10;99.90;;;;;;4993083;28;20231;-76
2024/01/06 07:19:50;;;;;;;15.10;9.30;;;6.10;99.90;;;;;;4986892;28;20212;-77
2024/01/06 07:22:22;;;;;;;15.67;9.70;;;6.00;99.90;;;;;;4975496;28;20203;-76
2024/01/06 07:24:50;;;;;;;16.77;9.83;;;6.00;99.90;;;;;;4981769;28;20659;-79
2024/01/06 07:27:17;;;;;;;17.27;10.43;;;5.90;99.90;;;;;;4995026;28;20223;-79
2024/01/06 07:29:44;;;;;;;18.17;10.87;;;6.00;99.90;;;;;;4992867;28;20211;-80
2024/01/06 07:32:12;;;;;;;19.70;12.17;;;6.00;99.90;;;;;;4995508;28;20199;-79
2024/01/06 07:34:39;;;;;;;18.37;10.93;;;6.00;99.90;;;;;;4996321;28;20648;-81
2024/01/06 07:37:07;;;;;;;17.13;11.23;;;6.10;99.90;;;;;;4989812;28;20222;-81
2024/01/06 07:39:35;;;;;;;18.70;11.60;;;6.00;99.90;;;;;;4996279;28;20203;-81
2024/01/06 07:42:03;;;;;;;20.07;11.13;;;5.90;99.90;;;;;;4994022;28;20230;-81
2024/01/06 07:44:31;;;;;;;17.20;10.90;;;5.90;99.90;;;;;;4991498;28;20201;-81
2024/01/06 07:46:58;;;;;;;18.40;10.73;;;5.90;99.90;;;;;;4997378;28;20215;-81
2024/01/06 07:49:26;;;;;;;20.77;11.73;;;5.90;99.90;;;;;;4996817;28;20204;-82
2024/01/06 07:51:53;;;;;;;19.90;11.83;;;5.80;99.90;;;;;;4994865;28;20203;-82
2024/01/06 07:54:20;;;;;;;22.73;12.27;;;5.80;99.90;;;;;;4996415;28;20206;-82
2024/01/06 07:56:49;;;;;;;16.80;10.90;;;5.90;99.90;;;;;;4994177;28;20550;-82
2024/01/06 07:59:17;;;;;;;19.53;12.53;;;5.80;99.90;;;;;;5000758;28;20207;-81
2024/01/06 08:01:44;;;;;;;17.07;10.80;;;5.80;99.90;;;;;;5011450;28;20214;-83
2024/01/06 08:04:12;;;;;;;17.53;11.30;;;5.90;99.90;;;;;;4997458;28;20205;-82
2024/01/06 08:06:39;;;;;;;22.00;12.57;;;5.90;99.90;;;;;;4996309;28;20216;-82
2024/01/06 08:09:08;;;;;;;18.80;11.30;;;5.80;99.90;;;;;;4999377;28;20218;-82
2024/01/06 08:11:35;;;;;;;19.30;11.83;;;5.80;99.90;;;;;;4998880;28;20199;-82
2024/01/06 08:14:04;;;;;;;17.47;10.87;;;5.80;99.90;;;;;;4998991;28;20199;-81
2024/01/06 08:16:32;;;;;;;16.57;10.60;;;5.90;99.90;;;;;;4997690;28;20223;-81
2024/01/06 08:18:59;;;;;;;18.10;10.83;;;5.80;99.90;;;;;;4994913;28;20669;-81
2024/01/06 08:21:27;;;;;;;15.63;10.07;;;5.80;99.90;;;;;;4997955;28;20672;-81
2024/01/06 08:23:55;;;;;;;19.33;11.17;;;5.90;99.90;;;;;;5006153;28;20217;-81
2024/01/06 08:26:23;;;;;;;18.60;10.40;;;5.90;99.90;;;;;;4997193;28;20207;-81
2024/01/06 08:28:50;;;;;;;17.97;10.50;;;6.00;99.90;;;;;;5013628;28;20203;-81
2024/01/06 08:31:19;;;;;;;18.63;10.07;;;6.00;99.90;;;;;;4994414;28;20522;-81
2024/01/06 08:33:46;;;;;;;19.23;10.77;;;6.00;99.90;;;;;;5000846;28;20195;-83
2024/01/06 08:36:14;;;;;;;19.40;10.90;;;5.80;99.90;;;;;;4997221;28;20206;-83
2024/01/06 08:38:41;;;;;;;19.70;10.80;;;5.90;99.90;;;;;;5014203;28;20223;-83
2024/01/06 08:41:09;;;;;;;16.20;10.43;;;5.90;99.90;;;;;;4998633;28;20200;-83
2024/01/06 08:43:36;;;;;;;17.63;10.30;;;5.80;99.90;;;;;;4998790;28;20672;-82
2024/01/06 08:46:05;;;;;;;17.10;9.63;;;5.80;99.90;;;;;;4998935;28;20199;-83
2024/01/06 08:48:34;;;;;;;15.53;9.57;;;5.60;99.90;;;;;;5009109;28;20209;-83
2024/01/06 08:51:01;;;;;;;14.67;9.03;;;5.50;99.90;;;;;;5016515;28;20218;-82
2024/01/06 08:53:29;;;;;;;15.93;8.63;;;5.50;99.90;;;;;;4997095;28;20209;-82
2024/01/06 08:55:56;;;;;;;13.40;7.97;;;5.50;99.90;;;;;;4996695;28;20202;-82
2024/01/06 08:58:24;;;;;;;13.70;8.47;;;5.50;99.90;;;;;;4996749;28;20234;-82
2024/01/06 09:00:53;;;;;;;14.77;8.47;;;5.60;99.90;;;;;;5014862;28;20199;-82
2024/01/06 09:03:24;;;;;;;15.90;7.63;;;5.50;99.90;;;;;;4999114;28;20210;-82
2024/01/06 09:05:54;;;;;;;16.53;8.77;;;5.50;99.90;;;;;;4997071;28;20213;-82
2024/01/06 09:08:23;;;;;;;13.20;8.60;;;5.40;99.90;;;;;;4997761;28;20728;-82
2024/01/06 09:10:51;;;;;;;14.57;9.40;;;5.40;99.90;;;;;;4997875;28;20672;-82
2024/01/06 09:13:18;;;;;;;12.77;8.13;;;5.40;99.90;;;;;;4998992;28;20202;-82
2024/01/06 09:15:46;;;;;;;13.73;7.80;;;5.40;99.90;;;;;;4998277;28;20224;-83
2024/01/06 09:18:13;;;;;;;10.93;7.30;;;5.40;99.90;;;;;;4996086;28;20229;-83
2024/01/06 09:20:41;;;;;;;11.03;7.03;;;5.40;99.90;;;;;;4979249;28;20213;-83
2024/01/06 09:23:10;;;;;;;11.73;7.60;;;5.50;99.90;;;;;;4977180;28;20209;-83
2024/01/06 09:26:17;;;;;;;11.13;7.03;;;5.40;99.90;;;;;;4985578;28;20200;-83
2024/01/06 09:28:44;;;;;;;12.33;7.77;;;5.50;99.90;;;;;;4996563;28;20194;-83
2024/01/06 09:31:22;;;;;;;13.30;7.97;;;5.70;99.90;;;;;;4996181;28;20201;-82
2024/01/06 09:34:12;;;;;;;10.83;7.67;;;5.80;99.90;;;;;;4996329;28;20207;-82
2024/01/06 09:36:39;;;;;;;11.47;7.60;;;5.70;99.90;;;;;;4995852;28;20229;-83
2024/01/06 09:39:08;;;;;;;10.20;7.17;;;5.50;99.90;;;;;;4994172;28;20218;-82
2024/01/06 09:41:36;;;;;;;10.50;7.27;;;5.40;99.90;;;;;;5013616;28;20210;-82
2024/01/06 09:44:03;;;;;;;10.20;6.77;;;5.40;99.90;;;;;;4995450;28;20206;-83
2024/01/06 09:46:33;;;;;;;11.00;6.87;;;5.40;99.90;;;;;;4995665;28;20222;-82
2024/01/06 09:49:01;;;;;;;9.27;6.30;;;5.60;99.90;;;;;;5014466;28;20198;-83
2024/01/06 09:51:29;;;;;;;10.00;6.53;;;5.60;99.90;;;;;;4996740;28;20561;-82
2024/01/06 09:53:59;;;;;;;8.97;5.80;;;5.60;99.90;;;;;;4996359;28;20206;-82
2024/01/06 09:56:29;;;;;;;8.77;5.60;;;5.60;99.90;;;;;;4992047;28;20214;-82
2024/01/06 09:58:56;;;;;;;9.03;6.40;;;5.60;99.90;;;;;;4995228;28;20219;-82
2024/01/06 10:01:24;;;;;;;8.70;6.00;;;5.70;99.90;;;;;;5004530;28;20199;-82
2024/01/06 10:03:51;;;;;;;9.77;6.73;;;5.70;99.90;;;;;;5017035;28;20218;-82
2024/01/06 10:06:20;;;;;;;12.53;7.63;;;5.70;99.90;;;;;;5004671;28;20209;-82
2024/01/06 10:08:50;;;;;;;12.10;8.40;;;5.70;99.90;;;;;;4996733;28;20561;-83
2024/01/06 10:11:18;;;;;;;13.43;8.47;;;5.60;99.90;;;;;;4993105;28;20193;-82
2024/01/06 10:13:48;;;;;;;11.37;7.93;;;5.70;99.90;;;;;;4998198;28;20635;-82
2024/01/06 10:16:16;;;;;;;10.53;7.67;;;5.60;99.90;;;;;;4998109;28;20206;-83
2024/01/06 10:18:45;;;;;;;12.13;8.70;;;5.60;99.90;;;;;;5011777;28;20218;-83
2024/01/06 10:21:17;;;;;;;12.30;8.73;;;5.70;99.90;;;;;;4998221;28;20203;-81
2024/01/06 10:23:45;;;;;;;14.23;9.20;;;5.70;99.90;;;;;;4998281;28;20207;-83
2024/01/06 10:26:14;;;;;;;13.10;8.40;;;5.60;99.90;;;;;;4994559;28;20215;-83
2024/01/06 10:28:41;;;;;;;14.80;9.57;;;5.40;99.90;;;;;;4996599;28;20213;-83
2024/01/06 10:31:11;;;;;;;16.27;10.00;;;5.30;99.90;;;;;;4997608;28;20203;-82
2024/01/06 10:33:40;;;;;;;15.97;9.10;;;5.10;99.90;;;;;;4997079;28;20214;-82
2024/01/06 10:36:09;;;;;;;15.43;9.67;;;5.10;99.90;;;;;;4998054;28;20208;-83
2024/01/06 10:38:37;;;;;;;17.17;10.13;;;5.10;99.90;;;;;;4994111;28;20221;-83
2024/01/06 10:41:07;;;;;;;16.20;9.97;;;5.10;99.90;;;;;;4989359;28;20205;-82
2024/01/06 10:43:36;;;;;;;19.33;10.67;;;5.10;99.90;;;;;;4998015;28;20197;-82
2024/01/06 10:46:04;;;;;;;18.77;10.80;;;5.20;99.90;;;;;;4995320;28;20201;-82
2024/01/06 10:48:35;;;;;;;20.57;12.27;;;5.30;99.90;;;;;;5012440;28;20223;-82
2024/01/06 10:51:07;;;;;;;20.03;13.87;;;5.30;99.90;;;;;;4996226;28;20207;-82
2024/01/06 10:53:35;;;;;;;21.83;13.63;;;5.40;99.90;;;;;;4995947;28;20205;-82
2024/01/06 10:56:05;;;;;;;21.53;12.87;;;5.30;99.90;;;;;;4996498;28;20195;-83
2024/01/06 10:58:47;;;;;;;20.17;13.20;;;5.50;99.90;;;;;;5011683;28;20226;-83
2024/01/06 11:01:15;;;;;;;21.17;13.53;;;5.50;99.90;;;;;;4999996;28;20217;-82
2024/01/06 11:03:49;;;;;;;19.43;12.43;;;5.30;99.90;;;;;;5001633;28;20214;-83
2024/01/06 11:06:18;;;;;;;17.60;12.10;;;5.20;99.90;;;;;;4998610;28;20210;-83
2024/01/06 11:08:50;;;;;;;17.43;12.13;;;5.30;99.90;;;;;;4999452;28;20202;-83
2024/01/06 11:11:19;;;;;;;19.43;11.77;;;5.30;99.90;;;;;;4996960;28;20210;-82
2024/01/06 11:13:47;;;;;;;19.30;12.93;;;5.20;99.90;;;;;;4994860;28;20202;-83
2024/01/06 11:16:36;;;;;;;20.10;12.53;;;5.00;99.90;;;;;;4994310;28;20204;-83
2024/01/06 11:19:44;;;;;;;22.97;13.50;;;4.90;99.90;;;;;;4996446;28;20233;-82
2024/01/06 11:22:26;;;;;;;18.57;12.30;;;4.90;99.90;;;;;;4991131;28;20225;-83
2024/01/06 11:24:55;;;;;;;18.50;12.20;;;4.90;99.90;;;;;;5000012;28;20554;-85
2024/01/06 11:27:26;;;;;;;17.87;12.63;;;4.90;99.90;;;;;;4987461;28;20564;-82
2024/01/06 11:29:55;;;;;;;19.57;12.80;;;5.00;99.90;;;;;;4997451;28;20203;-81
2024/01/06 11:32:28;;;;;;;17.17;12.07;;;5.10;99.90;;;;;;4997431;28;20561;-82
2024/01/06 11:35:05;;;;;;;18.90;12.93;;;5.00;99.90;;;;;;5000651;28;20561;-82
2024/01/06 11:37:37;;;;;;;17.10;11.23;;;5.00;99.90;;;;;;4989323;28;20224;-82
2024/01/06 11:40:09;;;;;;;16.67;11.43;;;4.80;99.90;;;;;;4998380;28;20223;-82
2024/01/06 11:42:36;;;;;;;16.47;10.83;;;4.80;99.90;;;;;;4998912;28;20203;-82
2024/01/06 11:45:06;;;;;;;15.87;11.13;;;4.90;99.90;;;;;;4998964;28;20213;-82
2024/01/06 11:47:34;;;;;;;17.87;11.30;;;4.90;99.90;;;;;;5017118;28;20226;-82
2024/01/06 11:50:04;;;;;;;15.93;11.10;;;5.00;99.90;;;;;;4998963;28;20193;-82
2024/01/06 11:52:33;;;;;;;16.43;10.10;;;5.10;99.90;;;;;;4999236;28;20194;-82
2024/01/06 11:55:01;;;;;;;15.43;10.20;;;5.10;99.90;;;;;;4998690;28;20561;-82
2024/01/06 11:57:47;;;;;;;17.20;11.10;;;5.10;99.90;;;;;;4998376;28;20241;-83
2024/01/06 12:00:15;;;;;;;17.93;11.50;;;5.10;99.90;;;;;;4997805;28;20218;-82
2024/01/06 12:02:42;;;;;;;19.97;11.80;;;5.00;99.90;;;;;;4998447;28;20207;-82
2024/01/06 12:05:16;;;;;;;18.90;12.53;;;4.90;99.90;;;;;;4998208;28;20212;-82
2024/01/06 12:07:43;;;;;;;20.10;12.83;;;4.80;99.90;;;;;;4997895;28;20699;-81
2024/01/06 12:10:14;;;;;;;18.33;11.33;;;4.80;99.90;;;;;;4997688;28;20194;-81
2024/01/06 12:12:41;;;;;;;23.33;13.13;;;4.90;99.90;;;;;;4998019;28;20208;-81
2024/01/06 12:15:09;;;;;;;17.60;12.87;;;4.80;99.90;;;;;;4994389;28;20202;-82
2024/01/06 12:17:37;;;;;;;18.33;12.60;;;4.80;99.90;;;;;;4996420;28;20219;-82
2024/01/06 12:20:09;;;;;;;20.63;12.80;;;4.80;99.90;;;;;;4992430;28;20217;-83
2024/01/06 12:22:38;;;;;;;22.47;14.37;;;4.90;99.90;;;;;;4990874;28;20222;-83
2024/01/06 12:25:33;;;;;;;22.57;13.63;;;4.70;99.90;;;;;;4988461;28;20702;-82
2024/01/06 12:28:02;;;;;;;22.73;14.67;;;4.80;99.90;;;;;;5025509;28;20222;-82
2024/01/06 12:30:31;;;;;;;22.53;14.07;;;4.90;99.90;;;;;;5007018;28;20199;-83
2024/01/06 12:32:59;;;;;;;24.23;14.17;;;4.90;99.90;;;;;;5007205;28;20521;-82
2024/01/06 12:35:26;;;;;;;21.10;14.10;;;4.70;99.90;;;;;;5001073;28;20199;-82
2024/01/06 12:37:55;;;;;;;21.90;14.07;;;4.80;99.90;;;;;;5013882;28;20223;-82
2024/01/06 12:40:50;;;;;;;23.33;14.47;;;4.90;99.90;;;;;;5000894;28;20212;-82
2024/01/06 12:43:17;;;;;;;23.03;14.50;;;4.90;99.90;;;;;;5026880;28;20196;-82
2024/01/06 12:45:45;;;;;;;24.07;14.30;;;4.90;99.90;;;;;;5015899;28;20205;-82
2024/01/06 12:48:12;;;;;;;20.77;12.80;;;4.90;99.90;;;;;;5020386;28;20229;-82
2024/01/06 12:50:40;;;;;;;21.47;13.10;;;4.90;99.90;;;;;;4998908;28;20560;-82
2024/01/06 12:53:14;;;;;;;19.60;12.80;;;4.90;99.90;;;;;;5016966;28;20198;-82